Terminal Aerodrome Forecast
Issued by NWS Cleveland, OH

Home | Current Version | Previous Version | Graphics & Text | Print | Product List | Glossary Off
Versions: 1 2 3 4 5 6 7 8 9 10 11 12 13 14 15 16 17 18 19 20 21

000
FTUS41 KCLE 301100
TAFERI
TAF
KERI 301129Z 3012/3112 29015G25KT P6SM VCSH SCT015 OVC025
      TEMPO 3012/3016 3SM -SHSN BLSN SCT008 OVC015
     FM301600 33012G20KT P6SM SCT015 OVC025
     FM302200 31010KT P6SM SCT025 BKN035
     FM310300 VRB04KT P6SM SCT150 BKN200=

USA.gov is the U.S. government's official web portal to all federal, state and local government web resources and services.